BIEGBIAR

Guest
Details From BIEG - Egilsstadir
To BIAR - Akureyri
Flight Number -
Tags generated
Created
Modified
Stats Distance 94 nm / 175 km
Max Altitude 7,000 ft / 2,134 m
Waypoints 3
Social Downloads 4
Likes 0
Share VATSIM

Download

Looking for another format? Having issues loading an existing format? Contact us
Advertisement - Login to hide

Notes

Basic altitude profile: - Ascent Rate: 2500ft/min - Ascent Speed: 250kts - Cruise Altitude: 35000ft - Cruise Speed: 420kts - Descent Rate: 1500ft/min - Descent Speed: 250kts Options: - Use NATs: yes - Use PACOTS: yes - Use low airways: yes - Use high airways: yes

Route

BIEG FELLI BIAR

ID Type Via Altitude Latitude Longitude Leg Dist Tot Dist Heading (true) Name
O BIEG APT - 0 ft / 0 m 65.28283˚ -14.40206˚ - 0 nm - Egilsstadir
FELLI FIX - 7,000 ft / 2,134 m 65.35417˚ -15.17389˚ 19 nm 19 nm 283° / 282° -
O BIAR APT - 0 ft / 0 m 65.65657˚ -18.07197˚ 74 nm 94 nm 285° / 283° Akureyri

Altitude Profile

Advertisement - Login to hide

BIEG

Details ICAO BIEG (EGS)
Name Egilsstadir
Region Iceland
Timezone Atlantic/Reykjavik (UTC+0.0)
Stats Elevation 76 ft / 23 m (AMSL)
Location 65.282830° -14.402058°
Runways 1
Magnetic Variation 10.114° W

METAR

BIEG 150200Z 01003KT 9999 FEW037 SCT055 BKN061 M04/M07 Q1012 R04/790193

Decode

TAF

TAF BIEG 150111Z 1503/1603 29008KT 9999 FEW025 BKN040 TXM04/1503Z TNM07/1509Z

Decode

Departure Runways

ID Width Length Bearing (true) Bearing (mag) Surface Threshold Offset Overrun Length
04 148 ft / 45 m 6,569 ft / 2,002 m 25.32° 35.43° Asphalt 492 ft / 150 m 0 ft / 0 m
22 148 ft / 45 m 6,569 ft / 2,002 m 205.34° 215.45° Asphalt 0 ft / 0 m 197 ft / 60 m

BIAR

Details ICAO BIAR (AEY)
Name Akureyri
Region Iceland
Timezone Unknown (UTC+0.0)
Stats Elevation 5 ft / 2 m (AMSL)
Location 65.656574° -18.071975°
Runways 1
Magnetic Variation 12.294° W

METAR

BIAR 150200Z 22004KT 9999 -SN FEW027 OVC051 M03/M06 Q1015

Decode

TAF

TAF BIAR 150111Z 1503/1603 17005KT 9999 BKN030 TXM04/1503Z TNM08/1600Z TEMPO 1503/1512 3000 SHSN BKN015 BECMG 1515/1518 SCT050

Decode

Destination Runways

ID Width Length Bearing (true) Bearing (mag) Surface Threshold Offset Overrun Length
01 148 ft / 45 m 7,855 ft / 2,394 m 355.54° 7.83° Asphalt 0 ft / 0 m 0 ft / 0 m
19 148 ft / 45 m 7,855 ft / 2,394 m 175.54° 187.83° Asphalt 0 ft / 0 m 0 ft / 0 m

Approach Navaids

Runway Type Ident Frequency Range Bearing (true) Bearing (mag) Slope Elevation
01 Localiser IEY 111.90 MHz 18 nm / 33 km 24.00° 36.29° - 200 ft / 61 m (AMSL)
01 Glidescope IEY 111.90 MHz 10 nm / 19 km 358.14° 10.43° 5.00° 44 ft / 13 m (AMSL)